createdAt,value
2016-03-01T00:00:10.903Z,24.12
2016-03-01T00:01:10.905Z,24.09
2016-03-01T00:02:10.924Z,24.1
2016-03-01T00:03:10.911Z,24.08
2016-03-01T00:04:10.929Z,24.09
2016-03-01T00:05:10.917Z,24.05
2016-03-01T00:06:10.982Z,24.08
2016-03-01T00:07:10.953Z,24
2016-03-01T00:08:10.940Z,24.08
2016-03-01T00:09:10.959Z,24.02
2016-03-01T00:10:10.961Z,23.98
2016-03-01T00:11:10.964Z,23.98
2016-03-01T00:12:10.982Z,24.05
2016-03-01T00:13:10.970Z,24.02
2016-03-01T00:14:10.972Z,24
2016-03-01T00:15:10.990Z,24.08
2016-03-01T00:16:10.992Z,23.98
2016-03-01T00:17:10.996Z,24
2016-03-01T00:18:11.029Z,24.05
2016-03-01T00:19:11.017Z,24.05
2016-03-01T00:20:11.034Z,24.05
2016-03-01T00:21:11.070Z,24.03
2016-03-01T00:22:11.025Z,24
2016-03-01T00:23:11.043Z,24
2016-03-01T00:24:11.046Z,24.03
2016-03-01T00:25:11.048Z,24.08
2016-03-01T00:26:11.083Z,24.06
2016-03-01T00:27:11.085Z,24.02
2016-03-01T00:28:11.088Z,23.98
2016-03-01T00:29:11.090Z,24
2016-03-01T00:30:11.075Z,24.02
2016-03-01T00:31:11.099Z,24
2016-03-01T00:32:11.116Z,24.03
2016-03-01T00:33:11.104Z,23.97
2016-03-01T00:34:11.107Z,24.06
2016-03-01T00:35:11.156Z,24.02
2016-03-01T00:36:11.113Z,24.05
2016-03-01T00:37:11.146Z,24.12
2016-03-01T00:38:11.149Z,23.98
2016-03-01T00:39:11.135Z,24.03
2016-03-01T00:40:11.154Z,24
2016-03-01T00:41:11.172Z,24.02
2016-03-01T00:42:11.160Z,24.02
2016-03-01T00:43:11.162Z,24.03
2016-03-01T00:44:11.197Z,24.03
2016-03-01T00:45:11.168Z,24.05
2016-03-01T00:46:12.593Z,24.03
2016-03-01T00:47:11.188Z,24.09
2016-03-01T00:48:11.207Z,24
2016-03-01T00:49:11.193Z,24.06
2016-03-01T00:50:11.212Z,24.06
2016-03-01T00:51:11.215Z,24.05
2016-03-01T00:52:11.221Z,24.06
2016-03-01T00:53:11.224Z,24.02
2016-03-01T00:54:11.227Z,23.98
2016-03-01T00:55:11.245Z,24.02
2016-03-01T00:56:11.248Z,24.02
2016-03-01T00:57:11.251Z,23.98
2016-03-01T00:58:11.269Z,24.06
2016-03-01T00:59:11.257Z,24.03
2016-03-01T01:00:11.274Z,24
2016-03-01T01:01:11.292Z,24
2016-03-01T01:02:11.327Z,24.02
2016-03-01T01:03:11.299Z,24.03
2016-03-01T01:04:11.301Z,24.08
2016-03-01T01:05:11.320Z,23.94
2016-03-01T01:06:11.306Z,24.03
2016-03-01T01:07:11.309Z,23.98
2016-03-01T01:08:11.312Z,24.02
2016-03-01T01:09:11.315Z,24.06
2016-03-01T01:10:11.333Z,24.02
2016-03-01T01:11:11.320Z,23.98
2016-03-01T01:12:11.338Z,24.03
2016-03-01T01:13:11.356Z,24.03
2016-03-01T01:14:11.343Z,23.98
2016-03-01T01:15:11.377Z,24.03
2016-03-01T01:16:11.380Z,24.02
2016-03-01T01:17:11.367Z,24.02
2016-03-01T01:18:11.385Z,24
2016-03-01T01:19:11.403Z,24.03
2016-03-01T01:20:11.390Z,24
2016-03-01T01:21:11.394Z,24.02
2016-03-01T01:22:11.444Z,23.94
2016-03-01T01:23:11.414Z,24.05
2016-03-01T01:24:11.433Z,23.98
2016-03-01T01:25:11.466Z,23.97
2016-03-01T01:26:11.422Z,24.03
2016-03-01T01:27:11.441Z,24.03
2016-03-01T01:28:11.459Z,23.97
2016-03-01T01:29:11.446Z,24.03
2016-03-01T01:30:11.464Z,24.05
2016-03-01T01:31:11.451Z,24.03
2016-03-01T01:32:11.454Z,24.03
2016-03-01T01:33:11.473Z,24
2016-03-01T01:34:11.507Z,23.97
2016-03-01T01:35:11.493Z,24.03
2016-03-01T01:36:11.496Z,24.02
2016-03-01T01:37:11.498Z,23.94
2016-03-01T01:38:11.518Z,23.97
2016-03-01T01:39:11.520Z,23.95
2016-03-01T01:40:11.523Z,24.05
2016-03-01T01:41:11.526Z,24.03
2016-03-01T01:42:11.528Z,24.06
2016-03-01T01:43:11.547Z,23.97
2016-03-01T01:44:11.549Z,24
2016-03-01T01:45:11.552Z,23.98
2016-03-01T01:46:11.555Z,24
2016-03-01T01:47:11.417Z,23.98
2016-03-01T01:48:11.575Z,24
2016-03-01T01:49:11.578Z,24.02
2016-03-01T01:50:11.580Z,24.02
2016-03-01T01:51:11.599Z,23.97
2016-03-01T01:52:11.586Z,23.97
2016-03-01T01:53:11.605Z,23.97
2016-03-01T01:54:11.591Z,24.03
2016-03-01T01:55:11.610Z,24.02
2016-03-01T01:56:11.627Z,23.94
2016-03-01T01:57:11.616Z,24.03
2016-03-01T01:58:11.633Z,24.02
2016-03-01T01:59:11.652Z,23.98
2016-03-01T02:00:11.638Z,24
2016-03-01T02:01:11.641Z,24
2016-03-01T02:02:11.660Z,24.02
2016-03-01T02:03:11.663Z,24.03
2016-03-01T02:04:11.681Z,24
2016-03-01T02:05:11.699Z,23.97
2016-03-01T02:06:11.687Z,24.02
2016-03-01T02:07:11.674Z,23.94
2016-03-01T02:08:11.692Z,23.98
2016-03-01T02:09:11.695Z,23.95
2016-03-01T02:10:11.556Z,23.91
2016-03-01T02:11:11.747Z,23.93
2016-03-01T02:12:11.718Z,23.95
2016-03-01T02:13:11.721Z,23.93
2016-03-01T02:14:11.739Z,23.93
2016-03-01T02:15:11.726Z,24.06
2016-03-01T02:16:11.744Z,23.97
2016-03-01T02:17:11.747Z,23.93
2016-03-01T02:18:11.750Z,23.97
2016-03-01T02:19:11.752Z,23.97
2016-03-01T02:20:11.771Z,23.91
2016-03-01T02:21:11.754Z,23.88
2016-03-01T02:22:12.286Z,23.95
2016-03-01T02:23:11.928Z,23.95
2016-03-01T02:24:15.508Z,23.94
2016-03-01T02:25:12.401Z,24.03
2016-03-01T02:26:11.827Z,24.02
2016-03-01T02:27:11.797Z,23.98
2016-03-01T02:28:11.816Z,23.94
2016-03-01T02:29:11.819Z,23.91
2016-03-01T02:30:11.822Z,23.95
2016-03-01T02:31:11.855Z,23.97
2016-03-01T02:32:11.827Z,23.88
2016-03-01T02:33:11.860Z,23.95
2016-03-01T02:34:11.848Z,23.97
2016-03-01T02:35:11.851Z,23.94
2016-03-01T02:36:11.853Z,23.85
2016-03-01T02:37:11.856Z,23.87
2016-03-01T02:38:11.873Z,23.88
2016-03-01T02:39:11.893Z,23.83
2016-03-01T02:40:11.879Z,23.85
2016-03-01T02:41:11.882Z,23.79
2016-03-01T02:42:11.885Z,23.91
2016-03-01T02:43:11.887Z,23.87
2016-03-01T02:44:11.921Z,23.88
2016-03-01T02:45:11.908Z,23.83
2016-03-01T02:46:11.958Z,23.78
2016-03-01T02:47:11.926Z,23.91
2016-03-01T02:48:11.914Z,23.8
2016-03-01T02:49:11.932Z,23.9
2016-03-01T02:50:11.950Z,23.88
2016-03-01T02:51:11.937Z,23.88
2016-03-01T02:52:11.940Z,23.95
2016-03-01T02:53:11.974Z,23.9
2016-03-01T02:54:11.961Z,23.88
2016-03-01T02:55:11.964Z,23.91
2016-03-01T02:56:12.013Z,23.85
2016-03-01T02:57:11.985Z,23.85
2016-03-01T02:58:11.988Z,23.83
2016-03-01T02:59:12.006Z,23.85
2016-03-01T03:00:11.993Z,23.88
2016-03-01T03:01:12.027Z,23.84
2016-03-01T03:02:11.998Z,23.9
2016-03-01T03:03:12.001Z,23.88
2016-03-01T03:04:12.019Z,23.9
2016-03-01T03:05:12.038Z,23.93
2016-03-01T03:06:12.040Z,23.94
2016-03-01T03:07:12.027Z,23.95
2016-03-01T03:08:12.046Z,23.94
2016-03-01T03:09:12.049Z,23.94
2016-03-01T03:10:12.051Z,23.88
2016-03-01T03:11:12.070Z,23.88
2016-03-01T03:12:12.072Z,23.88
2016-03-01T03:13:12.121Z,23.95
2016-03-01T03:14:12.078Z,24
2016-03-01T03:15:12.080Z,23.98
2016-03-01T03:16:12.098Z,23.94
2016-03-01T03:17:12.101Z,23.91
2016-03-01T03:18:12.119Z,23.94
2016-03-01T03:19:12.106Z,23.9
2016-03-01T03:20:12.109Z,23.91
2016-03-01T03:21:12.111Z,23.85
2016-03-01T03:22:12.130Z,23.85
2016-03-01T03:23:12.148Z,23.95
2016-03-01T03:24:12.136Z,23.91
2016-03-01T03:25:12.153Z,23.87
2016-03-01T03:26:12.142Z,23.95
2016-03-01T03:27:12.159Z,23.84
2016-03-01T03:28:12.162Z,23.95
2016-03-01T03:29:12.164Z,23.91
2016-03-01T03:30:12.167Z,23.9
2016-03-01T03:31:12.185Z,23.95
2016-03-01T03:32:12.188Z,23.95
2016-03-01T03:33:12.191Z,23.98
2016-03-01T03:34:12.225Z,23.91
2016-03-01T03:35:12.212Z,23.87
2016-03-01T03:36:12.215Z,23.94
2016-03-01T03:37:12.108Z,23.94
2016-03-01T03:38:12.220Z,23.8
2016-03-01T03:39:12.239Z,23.88
2016-03-01T03:40:12.257Z,23.87
2016-03-01T03:41:12.244Z,23.9
2016-03-01T03:42:12.262Z,23.93
2016-03-01T03:43:12.265Z,23.97
2016-03-01T03:44:12.252Z,23.95
2016-03-01T03:45:12.287Z,23.97
2016-03-01T03:46:12.289Z,23.91
2016-03-01T03:47:12.307Z,23.93
2016-03-01T03:48:12.278Z,23.9
2016-03-01T03:49:12.328Z,23.9
2016-03-01T03:50:12.299Z,23.88
2016-03-01T03:51:12.334Z,23.9
2016-03-01T03:52:12.305Z,23.91
2016-03-01T03:53:12.323Z,23.94
2016-03-01T03:54:12.310Z,23.84
2016-03-01T03:55:12.328Z,23.91
2016-03-01T03:56:12.330Z,23.88
2016-03-01T03:57:12.350Z,23.9
2016-03-01T03:58:12.353Z,23.9
2016-03-01T03:59:12.355Z,23.9
2016-03-01T04:00:12.357Z,23.85
2016-03-01T04:01:12.391Z,23.87
2016-03-01T04:02:12.410Z,23.9
2016-03-01T04:03:12.366Z,23.87
2016-03-01T04:04:12.400Z,23.88
2016-03-01T04:05:12.402Z,23.83
2016-03-01T04:06:12.389Z,23.91
2016-03-01T04:07:12.407Z,23.85
2016-03-01T04:08:12.410Z,23.8
2016-03-01T04:09:12.412Z,23.93
2016-03-01T04:10:12.416Z,23.9
2016-03-01T04:11:12.429Z,23.88
2016-03-01T04:12:12.432Z,23.9
2016-03-01T04:13:12.466Z,23.84
2016-03-01T04:14:12.437Z,23.95
2016-03-01T04:15:12.455Z,23.88
2016-03-01T04:16:12.458Z,23.94
2016-03-01T04:17:12.445Z,23.91
2016-03-01T04:18:12.479Z,23.9
2016-03-01T04:19:12.466Z,23.83
2016-03-01T04:20:12.484Z,23.94
2016-03-01T04:21:12.504Z,23.88
2016-03-01T04:22:12.490Z,23.88
2016-03-01T04:23:12.524Z,23.83
2016-03-01T04:24:12.511Z,23.84
2016-03-01T04:25:12.498Z,23.97
2016-03-01T04:26:12.532Z,23.88
2016-03-01T04:27:12.520Z,23.9
2016-03-01T04:28:12.522Z,23.94
2016-03-01T04:29:12.556Z,23.85
2016-03-01T04:30:12.542Z,23.88
2016-03-01T04:31:12.530Z,23.91
2016-03-01T04:32:12.548Z,23.79
2016-03-01T04:33:12.567Z,23.91
2016-03-01T04:34:12.586Z,23.91
2016-03-01T04:35:12.556Z,23.91
2016-03-01T04:36:12.575Z,23.93
2016-03-01T04:37:12.593Z,23.91
2016-03-01T04:38:12.580Z,23.91
2016-03-01T04:39:12.583Z,23.87
2016-03-01T04:40:12.616Z,23.9
2016-03-01T04:41:12.604Z,23.88
2016-03-01T04:42:12.622Z,23.91
2016-03-01T04:43:12.624Z,23.87
2016-03-01T04:44:12.612Z,23.83
2016-03-01T04:45:12.630Z,23.87
2016-03-01T04:46:12.633Z,23.88
2016-03-01T04:47:12.635Z,23.88
2016-03-01T04:48:12.654Z,23.91
2016-03-01T04:49:12.656Z,23.91
2016-03-01T04:50:12.659Z,23.9
2016-03-01T04:51:12.676Z,23.93
2016-03-01T04:52:12.665Z,23.95
2016-03-01T04:53:12.667Z,23.93
2016-03-01T04:54:12.685Z,23.85
2016-03-01T04:55:12.687Z,23.94
2016-03-01T04:56:12.690Z,23.91
2016-03-01T04:57:12.709Z,23.88
2016-03-01T04:58:12.696Z,23.88
2016-03-01T04:59:12.715Z,23.79
2016-03-01T05:00:13.186Z,23.87
2016-03-01T05:01:12.720Z,23.88
2016-03-01T05:02:12.738Z,23.83
2016-03-01T05:03:12.741Z,23.85
2016-03-01T05:04:12.758Z,23.87
2016-03-01T05:05:12.747Z,23.87
2016-03-01T05:06:12.780Z,23.88
2016-03-01T05:07:12.752Z,23.87
2016-03-01T05:08:12.770Z,23.93
2016-03-01T05:09:12.772Z,23.88
2016-03-01T05:10:12.775Z,23.91
2016-03-01T05:11:12.793Z,23.87
2016-03-01T05:12:12.780Z,23.87
2016-03-01T05:13:12.783Z,23.88
2016-03-01T05:14:12.818Z,23.88
2016-03-01T05:15:12.804Z,23.94
2016-03-01T05:16:12.869Z,23.95
2016-03-01T05:17:12.857Z,23.87
2016-03-01T05:18:12.657Z,23.83
2016-03-01T05:19:12.830Z,23.87
2016-03-01T05:20:12.822Z,23.87
2016-03-01T05:21:12.828Z,23.85
2016-03-01T05:22:12.820Z,23.91
2016-03-01T05:23:12.828Z,23.88
2016-03-01T05:24:12.804Z,23.88
2016-03-01T05:25:12.802Z,23.78
2016-03-01T05:26:12.816Z,23.8
2016-03-01T05:27:12.799Z,23.87
2016-03-01T05:28:12.814Z,23.8
2016-03-01T05:29:12.812Z,23.75
2016-03-01T05:30:12.814Z,23.8
2016-03-01T05:31:12.830Z,23.72
2016-03-01T05:32:12.816Z,23.83
2016-03-01T05:33:12.832Z,23.84
2016-03-01T05:34:12.833Z,23.84
2016-03-01T05:35:12.835Z,23.9
2016-03-01T05:36:12.917Z,23.84
2016-03-01T05:37:12.856Z,23.76
2016-03-01T05:38:12.874Z,23.79
2016-03-01T05:39:12.876Z,23.79
2016-03-01T05:40:12.893Z,23.76
2016-03-01T05:41:12.897Z,23.8
2016-03-01T05:42:12.868Z,23.75
2016-03-01T05:43:12.901Z,23.76
2016-03-01T05:44:12.903Z,23.7
2016-03-01T05:45:12.906Z,23.8
2016-03-01T05:46:12.925Z,23.73
2016-03-01T05:47:12.912Z,23.78
2016-03-01T05:48:12.930Z,23.76
2016-03-01T05:49:12.917Z,23.79
2016-03-01T05:50:12.919Z,23.83
2016-03-01T05:51:12.954Z,23.76
2016-03-01T05:52:12.940Z,23.73
2016-03-01T05:53:12.943Z,23.78
2016-03-01T05:54:12.977Z,23.76
2016-03-01T05:55:12.965Z,23.72
2016-03-01T05:56:12.983Z,23.79
2016-03-01T05:57:12.985Z,23.73
2016-03-01T05:58:12.972Z,23.72
2016-03-01T05:59:12.991Z,23.8
2016-03-01T06:00:12.993Z,23.78
2016-03-01T06:01:12.996Z,23.68
2016-03-01T06:02:12.999Z,23.8
2016-03-01T06:03:13.017Z,23.73
2016-03-01T06:04:13.020Z,23.79
2016-03-01T06:05:13.023Z,23.69
2016-03-01T06:06:13.025Z,23.78
2016-03-01T06:07:13.028Z,23.76
2016-03-01T06:08:13.031Z,23.8
2016-03-01T06:09:13.048Z,23.83
2016-03-01T06:10:13.051Z,23.78
2016-03-01T06:11:13.053Z,23.83
2016-03-01T06:12:13.057Z,23.78
2016-03-01T06:13:13.059Z,23.79
2016-03-01T06:14:13.078Z,23.79
2016-03-01T06:15:13.081Z,23.76
2016-03-01T06:16:13.083Z,23.8
2016-03-01T06:17:13.086Z,23.76
2016-03-01T06:18:13.088Z,23.8
2016-03-01T06:19:13.091Z,23.8
2016-03-01T06:20:13.125Z,23.73
2016-03-01T06:21:13.113Z,23.87
2016-03-01T06:22:13.130Z,23.8
2016-03-01T06:23:13.118Z,23.76
2016-03-01T06:24:13.135Z,23.79
2016-03-01T06:25:13.202Z,23.8
2016-03-01T06:26:13.157Z,23.76
2016-03-01T06:27:13.160Z,23.76
2016-03-01T06:28:13.147Z,23.76
2016-03-01T06:29:13.165Z,23.84
2016-03-01T06:30:13.168Z,23.75
2016-03-01T06:31:13.171Z,23.7
2016-03-01T06:32:13.173Z,23.76
2016-03-01T06:33:13.176Z,23.69
2016-03-01T06:34:13.179Z,23.79
2016-03-01T06:35:13.197Z,23.8
2016-03-01T06:36:13.200Z,23.73
2016-03-01T06:37:13.061Z,23.68
2016-03-01T06:38:13.221Z,23.68
2016-03-01T06:39:13.223Z,23.73
2016-03-01T06:40:13.257Z,23.66
2016-03-01T06:41:13.228Z,23.76
2016-03-01T06:42:13.231Z,23.8
2016-03-01T06:43:13.250Z,23.76
2016-03-01T06:44:13.253Z,23.84
2016-03-01T06:45:13.270Z,23.8
2016-03-01T06:46:13.258Z,23.8
2016-03-01T06:47:13.276Z,23.85
2016-03-01T06:48:13.263Z,23.78
2016-03-01T06:49:13.266Z,23.84
2016-03-01T06:50:13.283Z,23.76
2016-03-01T06:51:13.286Z,23.75
2016-03-01T06:52:13.305Z,23.85
2016-03-01T06:53:13.307Z,23.76
2016-03-01T06:54:13.310Z,23.79
2016-03-01T06:55:13.313Z,23.79
2016-03-01T06:56:13.332Z,23.76
2016-03-01T06:57:13.319Z,23.76
2016-03-01T06:58:13.337Z,23.76
2016-03-01T06:59:13.340Z,23.83
2016-03-01T07:00:13.608Z,23.8
2016-03-01T07:01:13.360Z,23.84
2016-03-01T07:02:13.348Z,23.78
2016-03-01T07:03:13.366Z,23.78
2016-03-01T07:04:13.369Z,23.72
2016-03-01T07:05:13.371Z,23.69
2016-03-01T07:06:13.374Z,23.78
2016-03-01T07:07:13.439Z,23.76
2016-03-01T07:08:13.395Z,23.73
2016-03-01T07:09:13.398Z,23.78
2016-03-01T07:10:13.401Z,23.69
2016-03-01T07:11:13.419Z,23.75
2016-03-01T07:12:13.437Z,23.76
2016-03-01T07:13:13.424Z,23.8
2016-03-01T07:14:13.443Z,23.8
2016-03-01T07:15:13.430Z,23.8
2016-03-01T07:16:13.448Z,23.78
2016-03-01T07:17:13.481Z,23.87
2016-03-01T07:18:13.453Z,23.83
2016-03-01T07:19:13.456Z,23.84
2016-03-01T07:20:13.474Z,23.76
2016-03-01T07:21:13.477Z,23.85
2016-03-01T07:22:13.495Z,23.9
2016-03-01T07:23:13.483Z,24.03
2016-03-01T07:24:13.500Z,24.18
2016-03-01T07:25:13.519Z,24.31
2016-03-01T07:26:13.521Z,24.47
2016-03-01T07:27:13.525Z,24.71
2016-03-01T07:28:13.511Z,24.9
2016-03-01T07:29:13.546Z,25
2016-03-01T07:30:13.532Z,25.08
2016-03-01T07:31:13.535Z,25.14
2016-03-01T07:32:13.537Z,25.2
2016-03-01T07:33:13.556Z,25.24
2016-03-01T07:34:13.559Z,25.39
2016-03-01T07:35:13.562Z,25.47
2016-03-01T07:36:14.032Z,25.61
2016-03-01T07:37:13.582Z,25.6
2016-03-01T07:38:13.585Z,25.75
2016-03-01T07:39:13.587Z,25.75
2016-03-01T07:40:13.606Z,25.75
2016-03-01T07:41:13.593Z,25.75
2016-03-01T07:42:13.612Z,25.77
2016-03-01T07:43:13.615Z,25.79
2016-03-01T07:44:13.633Z,25.79
2016-03-01T07:45:13.619Z,25.76
2016-03-01T07:46:13.653Z,25.87
2016-03-01T07:47:13.641Z,25.94
2016-03-01T07:48:13.644Z,25.91
2016-03-01T07:49:13.662Z,25.82
2016-03-01T07:50:13.664Z,25.85
2016-03-01T07:51:13.682Z,25.87
2016-03-01T07:52:13.717Z,25.88
2016-03-01T07:53:13.703Z,25.88
2016-03-01T07:54:13.675Z,25.85
2016-03-01T07:55:13.708Z,25.85
2016-03-01T07:56:13.711Z,25.88
2016-03-01T07:57:13.714Z,25.83
2016-03-01T07:58:13.795Z,25.7
2016-03-01T07:59:13.736Z,25.79
2016-03-01T08:00:13.754Z,25.73
2016-03-01T08:01:13.740Z,25.7
2016-03-01T08:02:13.790Z,25.72
2016-03-01T08:03:13.762Z,25.75
2016-03-01T08:04:13.765Z,25.7
2016-03-01T08:05:13.782Z,25.61
2016-03-01T08:06:13.785Z,25.62
2016-03-01T08:07:13.788Z,25.64
2016-03-01T08:08:13.790Z,25.58
2016-03-01T08:09:13.793Z,25.6
2016-03-01T08:10:13.828Z,25.6
2016-03-01T08:11:13.815Z,25.72
2016-03-01T08:12:13.926Z,25.72
2016-03-01T08:13:13.836Z,25.76
2016-03-01T08:14:13.839Z,25.75
2016-03-01T08:15:13.856Z,25.67
2016-03-01T08:16:13.859Z,25.72
2016-03-01T08:17:13.861Z,25.52
2016-03-01T08:18:13.881Z,25.47
2016-03-01T08:19:13.883Z,25.57
2016-03-01T08:20:13.901Z,25.52
2016-03-01T08:21:13.904Z,25.5
2016-03-01T08:22:13.906Z,25.43
2016-03-01T08:23:13.925Z,25.47
2016-03-01T08:24:13.927Z,25.38
2016-03-01T08:25:13.961Z,25.36
2016-03-01T08:26:13.964Z,25.4
2016-03-01T08:27:13.966Z,25.51
2016-03-01T08:28:13.985Z,25.42
2016-03-01T08:29:14.004Z,25.38
2016-03-01T08:30:13.990Z,25.39
2016-03-01T08:31:14.009Z,25.36
2016-03-01T08:32:14.012Z,25.33
2016-03-01T08:33:14.046Z,25.23
2016-03-01T08:34:14.032Z,25.2
2016-03-01T08:35:14.051Z,25.14
2016-03-01T08:36:14.069Z,25.17
2016-03-01T08:37:14.135Z,25.09
2016-03-01T08:38:14.074Z,25.17
2016-03-01T08:39:14.076Z,25.17
2016-03-01T08:40:14.112Z,25.15
2016-03-01T08:41:14.114Z,25.13
2016-03-01T08:42:14.179Z,25.18
2016-03-01T08:43:14.135Z,25.18
2016-03-01T08:44:14.137Z,25.23
2016-03-01T08:45:14.156Z,25.3
2016-03-01T08:46:14.158Z,25.33
2016-03-01T08:47:14.193Z,25.35
2016-03-01T08:48:14.195Z,25.42
2016-03-01T08:49:14.197Z,25.38
2016-03-01T08:50:14.200Z,25.51
2016-03-01T08:51:14.219Z,25.55
2016-03-01T08:52:14.237Z,25.7
2016-03-01T08:53:14.240Z,25.82
2016-03-01T08:54:14.243Z,25.92
2016-03-01T08:55:14.261Z,26.01
2016-03-01T08:56:14.263Z,26.1
2016-03-01T08:57:14.126Z,26.23
2016-03-01T08:58:14.285Z,26.15
2016-03-01T08:59:14.288Z,26.26
2016-03-01T09:00:14.305Z,26.33
2016-03-01T09:01:14.324Z,26.39
2016-03-01T09:02:14.405Z,26.37
2016-03-01T09:03:14.360Z,26.2
2016-03-01T09:04:14.363Z,26.12
2016-03-01T09:05:14.351Z,26.23
2016-03-01T09:06:14.368Z,26.29
2016-03-01T09:07:14.387Z,26.33
2016-03-01T09:08:14.405Z,26.36
2016-03-01T09:09:14.392Z,26.26
2016-03-01T09:10:14.410Z,26.25
2016-03-01T09:11:14.412Z,26.13
2016-03-01T09:12:14.432Z,26.1
2016-03-01T09:13:14.434Z,26.01
2016-03-01T09:14:14.453Z,26.02
2016-03-01T09:15:14.471Z,25.99
2016-03-01T09:16:14.458Z,25.9
2016-03-01T09:17:14.523Z,25.77
2016-03-01T09:18:14.525Z,25.61
2016-03-01T09:19:14.498Z,25.72
2016-03-01T09:20:14.500Z,25.6
2016-03-01T09:21:14.503Z,25.58
2016-03-01T09:22:14.521Z,25.46
2016-03-01T09:23:14.524Z,25.54
2016-03-01T09:24:14.542Z,25.43
2016-03-01T09:25:14.544Z,25.4
2016-03-01T09:26:14.548Z,25.45
2016-03-01T09:27:14.566Z,25.36
2016-03-01T09:28:14.583Z,25.24
2016-03-01T09:29:14.571Z,25.09
2016-03-01T09:30:14.589Z,25.18
2016-03-01T09:31:14.608Z,25.3
2016-03-01T09:32:14.657Z,25.25
2016-03-01T09:33:14.629Z,25.13
2016-03-01T09:34:14.647Z,25.02
2016-03-01T09:35:14.634Z,24.81
2016-03-01T09:36:14.652Z,24.77
2016-03-01T09:37:14.655Z,24.73
2016-03-01T09:38:14.674Z,24.81
2016-03-01T09:39:14.676Z,24.88
2016-03-01T09:40:14.741Z,24.78
2016-03-01T09:41:14.682Z,24.77
2016-03-01T09:42:14.700Z,24.73
2016-03-01T09:43:14.702Z,24.69
2016-03-01T09:44:14.720Z,24.68
2016-03-01T09:45:14.723Z,24.47
2016-03-01T09:46:14.726Z,24.31
2016-03-01T09:47:14.634Z,24.21
2016-03-01T09:48:14.748Z,24.22
2016-03-01T09:49:14.750Z,24.1
2016-03-01T09:50:14.767Z,24.05
2016-03-01T09:51:14.770Z,23.97
2016-03-01T09:52:14.789Z,23.85
2016-03-01T09:53:14.775Z,23.83
2016-03-01T09:54:14.778Z,23.76
2016-03-01T09:55:14.797Z,23.88
2016-03-01T09:56:14.816Z,23.8
2016-03-01T09:57:14.818Z,23.84
2016-03-01T09:58:14.822Z,23.78
2016-03-01T09:59:14.824Z,23.73
2016-03-01T10:00:14.827Z,23.78
2016-03-01T10:01:14.860Z,23.85
2016-03-01T10:02:14.863Z,23.93
2016-03-01T10:03:14.866Z,23.94
2016-03-01T10:04:14.868Z,24.06
2016-03-01T10:05:14.918Z,24.03
2016-03-01T10:06:14.874Z,24.16
2016-03-01T10:07:14.893Z,24.15
2016-03-01T10:08:14.895Z,24.25
2016-03-01T10:09:14.898Z,24.24
2016-03-01T10:10:14.932Z,24.39
2016-03-01T10:11:14.934Z,24.39
2016-03-01T10:12:14.921Z,24.43
2016-03-01T10:13:14.924Z,24.49
2016-03-01T10:14:14.942Z,24.58
2016-03-01T10:15:14.945Z,24.6
2016-03-01T10:16:14.962Z,24.68
2016-03-01T10:17:14.965Z,24.68
2016-03-01T10:18:14.968Z,24.73
2016-03-01T10:19:14.986Z,24.76
2016-03-01T10:20:14.974Z,24.73
2016-03-01T10:21:15.523Z,24.81
2016-03-01T10:22:14.994Z,24.8
2016-03-01T10:23:15.013Z,24.83
2016-03-01T10:24:15.016Z,24.96
2016-03-01T10:25:15.019Z,24.9
2016-03-01T10:26:15.021Z,24.87
2016-03-01T10:27:15.039Z,24.96
2016-03-01T10:28:15.042Z,24.93
2016-03-01T10:29:15.044Z,24.96
2016-03-01T10:30:15.047Z,25
2016-03-01T10:31:15.050Z,24.93
2016-03-01T10:32:15.116Z,24.88
2016-03-01T10:33:15.087Z,24.96
2016-03-01T10:34:15.074Z,25
2016-03-01T10:35:14.936Z,24.99
2016-03-01T10:36:15.095Z,25.05
2016-03-01T10:37:15.113Z,25.02
2016-03-01T10:38:15.115Z,24.99
2016-03-01T10:39:15.119Z,25
2016-03-01T10:40:15.121Z,24.93
2016-03-01T10:41:15.124Z,25.05
2016-03-01T10:42:15.143Z,25.08
2016-03-01T10:43:15.145Z,25
2016-03-01T10:44:15.148Z,24.98
2016-03-01T10:46:15.154Z,24.96
2016-03-01T10:47:15.234Z,25
2016-03-01T10:48:15.173Z,25.05
2016-03-01T10:49:15.209Z,24.96
2016-03-01T10:50:15.195Z,24.99
2016-03-01T10:51:15.198Z,24.93
2016-03-01T10:52:15.232Z,24.98
2016-03-01T10:53:15.234Z,25
2016-03-01T10:54:15.221Z,24.98
2016-03-01T10:55:15.239Z,24.99
2016-03-01T10:56:15.242Z,24.98
2016-03-01T10:57:15.245Z,24.99
2016-03-01T10:58:15.263Z,24.9
2016-03-01T10:59:15.250Z,24.85
2016-03-01T11:00:15.331Z,24.84
2016-03-01T11:01:15.287Z,24.84
2016-03-01T11:02:15.306Z,24.85
2016-03-01T11:03:15.293Z,24.83
2016-03-01T11:04:15.311Z,24.81
2016-03-01T11:05:15.313Z,24.95
2016-03-01T11:06:15.332Z,24.91
2016-03-01T11:07:15.319Z,24.81
2016-03-01T11:08:15.321Z,24.78
2016-03-01T11:09:15.340Z,24.78
2016-03-01T11:10:15.343Z,24.83
2016-03-01T11:11:15.361Z,24.78
2016-03-01T11:12:15.363Z,24.71
2016-03-01T11:13:15.366Z,24.67
2016-03-01T11:14:15.369Z,24.71
2016-03-01T11:16:16.140Z,24.68
2016-03-01T11:17:15.440Z,24.76
2016-03-01T11:18:15.426Z,24.73
2016-03-01T11:19:15.414Z,24.81
2016-03-01T11:20:15.416Z,24.73
2016-03-01T11:21:15.420Z,24.65
2016-03-01T11:22:15.422Z,24.69
2016-03-01T11:23:15.487Z,24.65
2016-03-01T11:24:15.458Z,24.68
2016-03-01T11:25:15.445Z,24.6
2016-03-01T11:26:15.447Z,24.5
2016-03-01T11:27:15.467Z,24.53
2016-03-01T11:28:15.485Z,24.58
2016-03-01T11:29:15.472Z,24.46
2016-03-01T11:30:15.490Z,24.47
2016-03-01T11:31:15.493Z,24.49
2016-03-01T11:32:15.511Z,24.53
2016-03-01T11:33:15.498Z,24.53
2016-03-01T11:34:15.517Z,24.55
2016-03-01T11:35:15.519Z,24.6
2016-03-01T11:36:15.537Z,24.53
2016-03-01T11:37:15.540Z,24.58
2016-03-01T11:38:15.543Z,24.55
2016-03-01T11:39:15.546Z,24.58
2016-03-01T11:40:15.548Z,24.52
2016-03-01T11:41:15.566Z,24.6
2016-03-01T11:42:15.569Z,24.57
2016-03-01T11:43:15.603Z,24.52
2016-03-01T11:44:15.575Z,24.46
2016-03-01T11:45:15.593Z,24.53
2016-03-01T11:46:15.612Z,24.53
2016-03-01T11:47:15.614Z,24.52
2016-03-01T11:48:15.601Z,24.52
2016-03-01T11:49:15.620Z,24.62
2016-03-01T11:50:15.622Z,24.57
2016-03-01T11:51:15.625Z,24.55
2016-03-01T11:52:15.643Z,24.5
2016-03-01T11:53:15.645Z,24.53
2016-03-01T11:54:15.649Z,24.57
2016-03-01T11:55:15.667Z,24.53
2016-03-01T11:56:15.654Z,24.49
2016-03-01T11:57:15.672Z,24.47
2016-03-01T11:58:15.675Z,24.47
2016-03-01T11:59:15.693Z,24.47
2016-03-01T12:00:15.696Z,24.49
2016-03-01T12:01:15.698Z,24.53
2016-03-01T12:02:15.717Z,24.49
2016-03-01T12:03:15.547Z,24.53
2016-03-01T12:04:15.753Z,24.49
2016-03-01T12:05:15.725Z,24.5
2016-03-01T12:06:15.728Z,24.49
2016-03-01T12:07:15.731Z,24.53
2016-03-01T12:08:15.750Z,24.49
2016-03-01T12:09:15.752Z,24.52
2016-03-01T12:10:15.755Z,24.55
2016-03-01T12:11:15.757Z,24.52
2016-03-01T12:12:15.776Z,24.58
2016-03-01T12:13:15.778Z,24.58
2016-03-01T12:14:15.797Z,24.52
2016-03-01T12:15:15.800Z,24.52
2016-03-01T12:16:15.833Z,24.5
2016-03-01T12:17:15.805Z,24.6
2016-03-01T12:18:15.808Z,24.55
2016-03-01T12:19:15.826Z,24.55
2016-03-01T12:20:15.829Z,24.52
2016-03-01T12:21:15.846Z,24.61
2016-03-01T12:22:15.850Z,24.53
2016-03-01T12:23:15.852Z,24.55
2016-03-01T12:24:15.855Z,24.52
2016-03-01T12:25:15.858Z,24.53
2016-03-01T12:26:15.876Z,24.61
2016-03-01T12:27:15.878Z,24.58
2016-03-01T12:28:15.881Z,24.58
2016-03-01T12:29:15.884Z,24.53
2016-03-01T12:30:15.902Z,24.53
2016-03-01T12:31:15.905Z,24.58
2016-03-01T12:32:15.908Z,24.52
2016-03-01T12:33:15.911Z,24.58
2016-03-01T12:34:15.929Z,24.55
2016-03-01T12:35:15.931Z,24.6
2016-03-01T12:36:15.934Z,24.53
2016-03-01T12:37:15.936Z,24.6
2016-03-01T12:38:15.940Z,24.53
2016-03-01T12:39:15.958Z,24.57
2016-03-01T12:40:15.960Z,24.58
2016-03-01T12:41:15.979Z,24.55
2016-03-01T12:42:15.966Z,24.55
2016-03-01T12:43:15.984Z,24.62
2016-03-01T12:44:15.987Z,24.6
2016-03-01T12:45:16.006Z,24.55
2016-03-01T12:46:16.024Z,24.62
2016-03-01T12:47:16.011Z,24.62
2016-03-01T12:48:16.014Z,24.61
2016-03-01T12:49:16.032Z,24.65
2016-03-01T12:50:16.035Z,24.61
2016-03-01T12:51:16.052Z,24.61
2016-03-01T12:52:16.040Z,24.65
2016-03-01T12:53:16.058Z,24.62
2016-03-01T12:54:16.060Z,24.64
2016-03-01T12:55:16.063Z,24.65
2016-03-01T12:56:16.066Z,24.65
2016-03-01T12:57:16.101Z,24.61
2016-03-01T12:58:16.087Z,24.58
2016-03-01T12:59:16.120Z,24.6
2016-03-01T13:00:16.530Z,24.58